sensor_id;sensor_type;location;lat;lon;timestamp;pressure;altitude;pressure_sealevel;temperature;humidity
68941;BME280;55982;51.476;7.552;2023-04-19T00:00:11;100843.50;;;10.09;100.00
68941;BME280;55982;51.476;7.552;2023-04-19T00:02:36;100843.56;;;10.03;100.00
68941;BME280;55982;51.476;7.552;2023-04-19T00:05:02;100822.69;;;10.01;100.00
68941;BME280;55982;51.476;7.552;2023-04-19T00:07:27;100834.06;;;10.00;100.00
68941;BME280;55982;51.476;7.552;2023-04-19T00:09:53;100833.97;;;10.05;100.00
68941;BME280;55982;51.476;7.552;2023-04-19T00:12:18;100825.34;;;10.00;100.00
68941;BME280;55982;51.476;7.552;2023-04-19T00:14:44;100826.19;;;10.02;100.00
68941;BME280;55982;51.476;7.552;2023-04-19T00:17:09;100827.94;;;10.00;100.00
68941;BME280;55982;51.476;7.552;2023-04-19T00:19:36;100816.59;;;10.02;100.00
68941;BME280;55982;51.476;7.552;2023-04-19T00:22:01;100819.19;;;10.04;100.00
68941;BME280;55982;51.476;7.552;2023-04-19T00:24:27;100812.19;;;10.03;100.00
68941;BME280;55982;51.476;7.552;2023-04-19T00:26:52;100801.72;;;10.06;100.00
68941;BME280;55982;51.476;7.552;2023-04-19T00:29:17;100810.41;;;10.08;100.00
68941;BME280;55982;51.476;7.552;2023-04-19T00:31:43;100799.09;;;10.06;100.00
68941;BME280;55982;51.476;7.552;2023-04-19T00:34:08;100804.31;;;10.07;100.00
68941;BME280;55982;51.476;7.552;2023-04-19T00:36:33;100813.06;;;10.06;100.00
68941;BME280;55982;51.476;7.552;2023-04-19T00:38:59;100806.94;;;10.06;100.00
68941;BME280;55982;51.476;7.552;2023-04-19T00:41:24;100801.72;;;10.06;100.00
68941;BME280;55982;51.476;7.552;2023-04-19T00:43:50;100806.03;;;10.07;100.00
68941;BME280;55982;51.476;7.552;2023-04-19T00:46:15;100803.44;;;10.07;100.00
68941;BME280;55982;51.476;7.552;2023-04-19T00:48:40;100805.19;;;10.09;100.00
68941;BME280;55982;51.476;7.552;2023-04-19T00:51:06;100817.34;;;10.09;100.00
68941;BME280;55982;51.476;7.552;2023-04-19T00:53:32;100805.19;;;10.05;100.00
68941;BME280;55982;51.476;7.552;2023-04-19T00:56:01;100803.53;;;10.01;100.00
68941;BME280;55982;51.476;7.552;2023-04-19T00:58:29;100799.97;;;10.05;100.00
68941;BME280;55982;51.476;7.552;2023-04-19T01:00:55;100804.34;;;10.06;100.00
68941;BME280;55982;51.476;7.552;2023-04-19T01:03:21;100800.03;;;10.02;100.00
68941;BME280;55982;51.476;7.552;2023-04-19T01:05:46;100794.88;;;9.97;100.00
68941;BME280;55982;51.476;7.552;2023-04-19T01:08:12;100801.88;;;9.97;100.00
68941;BME280;55982;51.476;7.552;2023-04-19T01:10:38;100802.72;;;9.97;100.00
68941;BME280;55982;51.476;7.552;2023-04-19T01:13:03;100803.63;;;9.95;100.00
68941;BME280;55982;51.476;7.552;2023-04-19T01:15:29;100794.06;;;9.94;100.00
68941;BME280;55982;51.476;7.552;2023-04-19T01:17:55;100792.25;;;9.97;100.00
68941;BME280;55982;51.476;7.552;2023-04-19T01:20:20;100793.97;;;10.00;100.00
68941;BME280;55982;51.476;7.552;2023-04-19T01:22:46;100795.75;;;9.96;100.00
68941;BME280;55982;51.476;7.552;2023-04-19T01:25:11;100794.91;;;9.96;100.00
68941;BME280;55982;51.476;7.552;2023-04-19T01:27:37;100795.81;;;9.95;100.00
68941;BME280;55982;51.476;7.552;2023-04-19T01:30:02;100793.22;;;9.92;100.00
68941;BME280;55982;51.476;7.552;2023-04-19T01:32:28;100792.34;;;9.91;100.00
68941;BME280;55982;51.476;7.552;2023-04-19T01:34:53;100799.22;;;9.98;100.00
68941;BME280;55982;51.476;7.552;2023-04-19T01:37:19;100786.19;;;9.97;100.00
68941;BME280;55982;51.476;7.552;2023-04-19T01:39:44;100788.78;;;9.97;100.00
68941;BME280;55982;51.476;7.552;2023-04-19T01:42:10;100784.34;;;10.02;100.00
68941;BME280;55982;51.476;7.552;2023-04-19T01:44:35;100787.09;;;9.94;100.00
68941;BME280;55982;51.476;7.552;2023-04-19T01:47:01;100779.22;;;9.96;100.00
68941;BME280;55982;51.476;7.552;2023-04-19T01:49:27;100775.72;;;9.97;100.00
68941;BME280;55982;51.476;7.552;2023-04-19T01:51:52;100779.22;;;9.96;100.00
68941;BME280;55982;51.476;7.552;2023-04-19T01:54:18;100780.03;;;9.99;100.00
68941;BME280;55982;51.476;7.552;2023-04-19T01:56:43;100774.84;;;9.96;100.00
68941;BME280;55982;51.476;7.552;2023-04-19T01:59:10;100785.34;;;9.95;100.00
68941;BME280;55982;51.476;7.552;2023-04-19T02:01:35;100783.50;;;10.00;100.00
68941;BME280;55982;51.476;7.552;2023-04-19T02:04:04;100784.34;;;10.02;100.00
68941;BME280;55982;51.476;7.552;2023-04-19T02:06:29;100782.66;;;9.98;100.00
68941;BME280;55982;51.476;7.552;2023-04-19T02:08:56;100776.53;;;9.99;100.00
68941;BME280;55982;51.476;7.552;2023-04-19T02:11:21;100787.97;;;9.95;100.00
68941;BME280;55982;51.476;7.552;2023-04-19T02:13:46;100774.84;;;9.96;100.00
68941;BME280;55982;51.476;7.552;2023-04-19T02:16:15;100785.31;;;9.96;100.00
68941;BME280;55982;51.476;7.552;2023-04-19T02:18:40;100784.38;;;9.99;100.00
68941;BME280;55982;51.476;7.552;2023-04-19T02:21:07;100786.22;;;9.94;100.00
68941;BME280;55982;51.476;7.552;2023-04-19T02:23:33;100787.97;;;9.92;100.00
68941;BME280;55982;51.476;7.552;2023-04-19T02:26:01;100778.44;;;9.89;100.00
68941;BME280;55982;51.476;7.552;2023-04-19T02:28:28;100779.28;;;9.93;100.00
68941;BME280;55982;51.476;7.552;2023-04-19T02:30:54;100781.84;;;9.94;100.00
68941;BME280;55982;51.476;7.552;2023-04-19T02:33:20;100781.03;;;9.91;100.00
68941;BME280;55982;51.476;7.552;2023-04-19T02:35:46;100778.44;;;9.91;100.00
68941;BME280;55982;51.476;7.552;2023-04-19T02:38:11;100774.13;;;9.87;100.00
68941;BME280;55982;51.476;7.552;2023-04-19T02:40:37;100772.38;;;9.86;100.00
68941;BME280;55982;51.476;7.552;2023-04-19T02:43:03;100775.00;;;9.86;100.00
68941;BME280;55982;51.476;7.552;2023-04-19T02:45:29;100766.31;;;9.84;100.00
68941;BME280;55982;51.476;7.552;2023-04-19T02:47:54;100776.75;;;9.87;100.00
68941;BME280;55982;51.476;7.552;2023-04-19T02:50:20;100771.56;;;9.82;100.00
68941;BME280;55982;51.476;7.552;2023-04-19T02:52:45;100773.28;;;9.85;100.00
68941;BME280;55982;51.476;7.552;2023-04-19T02:55:11;100772.56;;;9.75;100.00
68941;BME280;55982;51.476;7.552;2023-04-19T02:57:36;100762.09;;;9.77;100.00
68941;BME280;55982;51.476;7.552;2023-04-19T03:00:02;100767.31;;;9.77;100.00
68941;BME280;55982;51.476;7.552;2023-04-19T03:02:29;100761.25;;;9.75;100.00
68941;BME280;55982;51.476;7.552;2023-04-19T03:04:59;100768.41;;;9.62;100.00
68941;BME280;55982;51.476;7.552;2023-04-19T03:07:25;100771.88;;;9.64;100.00
68941;BME280;55982;51.476;7.552;2023-04-19T03:09:50;100765.75;;;9.64;100.00
68941;BME280;55982;51.476;7.552;2023-04-19T03:12:16;100769.22;;;9.66;100.00
68941;BME280;55982;51.476;7.552;2023-04-19T03:14:41;100765.75;;;9.64;100.00
68941;BME280;55982;51.476;7.552;2023-04-19T03:17:07;100755.31;;;9.64;100.00
68941;BME280;55982;51.476;7.552;2023-04-19T03:19:32;100757.09;;;9.59;100.00
68941;BME280;55982;51.476;7.552;2023-04-19T03:21:58;100757.09;;;9.62;100.00
68941;BME280;55982;51.476;7.552;2023-04-19T03:24:30;100753.72;;;9.54;100.00
68941;BME280;55982;51.476;7.552;2023-04-19T03:26:56;100752.00;;;9.53;100.00
68941;BME280;55982;51.476;7.552;2023-04-19T03:29:22;100748.53;;;9.51;100.00
68941;BME280;55982;51.476;7.552;2023-04-19T03:31:47;100745.03;;;9.52;100.00
68941;BME280;55982;51.476;7.552;2023-04-19T03:34:14;100751.13;;;9.52;100.00
68941;BME280;55982;51.476;7.552;2023-04-19T03:36:40;100750.25;;;9.52;100.00
68941;BME280;55982;51.476;7.552;2023-04-19T03:39:05;100750.41;;;9.43;100.00
68941;BME280;55982;51.476;7.552;2023-04-19T03:41:31;100741.72;;;9.41;100.00
68941;BME280;55982;51.476;7.552;2023-04-19T03:43:57;100740.03;;;9.37;100.00
68941;BME280;55982;51.476;7.552;2023-04-19T03:46:22;100745.31;;;9.31;100.00
68941;BME280;55982;51.476;7.552;2023-04-19T03:48:49;100734.00;;;9.32;100.00
68941;BME280;55982;51.476;7.552;2023-04-19T03:51:16;100727.88;;;9.33;100.00
68941;BME280;55982;51.476;7.552;2023-04-19T03:53:43;100739.22;;;9.30;100.00
68941;BME280;55982;51.476;7.552;2023-04-19T03:56:09;100740.97;;;9.31;100.00
68941;BME280;55982;51.476;7.552;2023-04-19T03:58:34;100741.91;;;9.26;100.00
68941;BME280;55982;51.476;7.552;2023-04-19T04:01:03;100735.00;;;9.21;100.00
68941;BME280;55982;51.476;7.552;2023-04-19T04:03:30;100740.25;;;9.20;100.00
68941;BME280;55982;51.476;7.552;2023-04-19T04:05:56;100733.38;;;9.13;100.00
68941;BME280;55982;51.476;7.552;2023-04-19T04:08:22;100729.81;;;9.18;100.00
68941;BME280;55982;51.476;7.552;2023-04-19T04:10:47;100738.63;;;9.11;100.00
68941;BME280;55982;51.476;7.552;2023-04-19T04:13:13;100740.44;;;9.06;100.00
68941;BME280;55982;51.476;7.552;2023-04-19T04:15:38;100742.22;;;9.01;100.00
68941;BME280;55982;51.476;7.552;2023-04-19T04:18:05;100741.44;;;8.95;100.00
68941;BME280;55982;51.476;7.552;2023-04-19T04:20:30;100739.75;;;8.91;100.00
68941;BME280;55982;51.476;7.552;2023-04-19T04:22:56;100742.34;;;8.92;100.00
68941;BME280;55982;51.476;7.552;2023-04-19T04:25:22;100748.50;;;8.85;100.00
68941;BME280;55982;51.476;7.552;2023-04-19T04:27:51;100756.34;;;8.85;100.00
68941;BME280;55982;51.476;7.552;2023-04-19T04:30:16;100755.47;;;8.85;100.00
68941;BME280;55982;51.476;7.552;2023-04-19T04:32:42;100748.56;;;8.81;100.00
68941;BME280;55982;51.476;7.552;2023-04-19T04:35:09;100752.03;;;8.80;100.00
68941;BME280;55982;51.476;7.552;2023-04-19T04:37:35;100754.59;;;8.84;100.00
68941;BME280;55982;51.476;7.552;2023-04-19T04:40:02;100751.25;;;8.73;100.00
68941;BME280;55982;51.476;7.552;2023-04-19T04:42:34;100760.78;;;8.74;100.00
68941;BME280;55982;51.476;7.552;2023-04-19T04:45:03;100753.88;;;8.70;100.00
68941;BME280;55982;51.476;7.552;2023-04-19T04:47:33;100754.72;;;8.72;100.00
68941;BME280;55982;51.476;7.552;2023-04-19T04:50:01;100752.22;;;8.66;100.00
68941;BME280;55982;51.476;7.552;2023-04-19T04:52:27;100738.25;;;8.67;100.00
68941;BME280;55982;51.476;7.552;2023-04-19T04:54:55;100756.56;;;8.64;100.00
68941;BME280;55982;51.476;7.552;2023-04-19T04:57:21;100756.59;;;8.61;100.00
68941;BME280;55982;51.476;7.552;2023-04-19T04:59:48;100765.25;;;8.63;100.00
68941;BME280;55982;51.476;7.552;2023-04-19T05:02:14;100758.34;;;8.62;100.00
68941;BME280;55982;51.476;7.552;2023-04-19T05:04:40;100754.88;;;8.57;100.00
68941;BME280;55982;51.476;7.552;2023-04-19T05:07:05;100767.06;;;8.58;100.00
68941;BME280;55982;51.476;7.552;2023-04-19T05:09:31;100763.59;;;8.56;100.00
68941;BME280;55982;51.476;7.552;2023-04-19T05:11:56;100765.38;;;8.54;100.00
68941;BME280;55982;51.476;7.552;2023-04-19T05:14:22;100762.84;;;8.47;100.00
68941;BME280;55982;51.476;7.552;2023-04-19T05:16:47;100766.31;;;8.46;100.00
68941;BME280;55982;51.476;7.552;2023-04-19T05:19:15;100765.50;;;8.39;100.00
68941;BME280;55982;51.476;7.552;2023-04-19T05:21:44;100766.38;;;8.38;100.00
68941;BME280;55982;51.476;7.552;2023-04-19T05:24:10;100763.75;;;8.41;100.00
68941;BME280;55982;51.476;7.552;2023-04-19T05:26:35;100753.41;;;8.34;100.00
68941;BME280;55982;51.476;7.552;2023-04-19T05:29:01;100755.97;;;8.37;100.00
68941;BME280;55982;51.476;7.552;2023-04-19T05:31:26;100760.28;;;8.38;100.00
68941;BME280;55982;51.476;7.552;2023-04-19T05:33:52;100755.94;;;8.40;100.00
68941;BME280;55982;51.476;7.552;2023-04-19T05:36:17;100770.69;;;8.45;100.00
68941;BME280;55982;51.476;7.552;2023-04-19T05:38:43;100756.59;;;8.61;100.00
68941;BME280;55982;51.476;7.552;2023-04-19T05:41:11;100761.69;;;8.70;100.00
68941;BME280;55982;51.476;7.552;2023-04-19T05:43:36;100761.75;;;8.67;100.00
68941;BME280;55982;51.476;7.552;2023-04-19T05:46:02;100757.25;;;8.78;100.00
68941;BME280;55982;51.476;7.552;2023-04-19T05:48:28;100749.53;;;8.71;100.00
68941;BME280;55982;51.476;7.552;2023-04-19T05:50:55;100752.69;;;9.00;100.00
68941;BME280;55982;51.476;7.552;2023-04-19T05:53:22;100752.50;;;9.13;100.00
68941;BME280;55982;51.476;7.552;2023-04-19T05:55:48;100747.13;;;9.24;100.00
68941;BME280;55982;51.476;7.552;2023-04-19T05:58:16;100755.06;;;9.18;100.00
68941;BME280;55982;51.476;7.552;2023-04-19T06:00:41;100757.84;;;9.04;100.00
68941;BME280;55982;51.476;7.552;2023-04-19T06:03:07;100752.19;;;8.68;100.00
68941;BME280;55982;51.476;7.552;2023-04-19T06:05:32;100752.47;;;8.39;100.00
68941;BME280;55982;51.476;7.552;2023-04-19T06:07:59;100760.25;;;8.45;100.00
68941;BME280;55982;51.476;7.552;2023-04-19T06:10:25;100751.69;;;8.31;100.00
68941;BME280;55982;51.476;7.552;2023-04-19T06:12:50;100766.56;;;8.14;100.00
68941;BME280;55982;51.476;7.552;2023-04-19T06:15:17;100751.69;;;8.31;100.00
68941;BME280;55982;51.476;7.552;2023-04-19T06:17:42;100758.59;;;8.32;100.00
68941;BME280;55982;51.476;7.552;2023-04-19T06:20:08;100765.38;;;8.54;100.00
68941;BME280;55982;51.476;7.552;2023-04-19T06:22:34;100759.25;;;8.55;100.00
68941;BME280;55982;51.476;7.552;2023-04-19T06:25:06;100752.47;;;8.39;100.00
68941;BME280;55982;51.476;7.552;2023-04-19T06:27:32;100751.63;;;8.37;100.00
68941;BME280;55982;51.476;7.552;2023-04-19T06:29:57;100756.84;;;8.37;100.00
68941;BME280;55982;51.476;7.552;2023-04-19T06:32:25;100762.78;;;8.50;100.00
68941;BME280;55982;51.476;7.552;2023-04-19T06:34:51;100760.72;;;8.83;100.00
68941;BME280;55982;51.476;7.552;2023-04-19T06:37:16;100754.22;;;9.14;100.00
68941;BME280;55982;51.476;7.552;2023-04-19T06:39:42;100757.28;;;9.48;100.00
68941;BME280;55982;51.476;7.552;2023-04-19T06:42:07;100749.38;;;9.51;100.00
68941;BME280;55982;51.476;7.552;2023-04-19T06:44:32;100756.03;;;9.09;100.00
68941;BME280;55982;51.476;7.552;2023-04-19T06:46:58;100742.97;;;9.11;100.00
68941;BME280;55982;51.476;7.552;2023-04-19T06:49:23;100755.91;;;9.18;100.00
68941;BME280;55982;51.476;7.552;2023-04-19T06:51:49;100753.38;;;9.14;100.00
68941;BME280;55982;51.476;7.552;2023-04-19T06:54:14;100761.31;;;9.06;100.00
68941;BME280;55982;51.476;7.552;2023-04-19T06:56:48;100763.16;;;8.95;100.00
68941;BME280;55982;51.476;7.552;2023-04-19T06:59:19;100769.59;;;8.66;100.00
68941;BME280;55982;51.476;7.552;2023-04-19T07:01:46;100768.94;;;9.21;100.00
68941;BME280;55982;51.476;7.552;2023-04-19T07:04:13;100767.97;;;9.32;100.00
68941;BME280;55982;51.476;7.552;2023-04-19T07:06:39;100755.44;;;9.55;100.00
68941;BME280;55982;51.476;7.552;2023-04-19T07:09:07;100761.72;;;9.40;100.00
68941;BME280;55982;51.476;7.552;2023-04-19T07:11:32;100760.59;;;8.92;100.00
68941;BME280;55982;51.476;7.552;2023-04-19T07:13:58;100758.56;;;9.17;100.00
68941;BME280;55982;51.476;7.552;2023-04-19T07:16:25;100755.72;;;9.34;100.00
68941;BME280;55982;51.476;7.552;2023-04-19T07:18:51;100758.44;;;9.28;100.00
68941;BME280;55982;51.476;7.552;2023-04-19T07:21:17;100754.13;;;9.23;100.00
68941;BME280;55982;51.476;7.552;2023-04-19T07:23:42;100758.03;;;9.56;94.79
68941;BME280;55982;51.476;7.552;2023-04-19T07:26:08;100773.38;;;9.79;94.53
68941;BME280;55982;51.476;7.552;2023-04-19T07:28:34;100768.91;;;9.87;96.98
68941;BME280;55982;51.476;7.552;2023-04-19T07:30:59;100765.53;;;10.35;91.06
68941;BME280;55982;51.476;7.552;2023-04-19T07:33:29;100758.63;;;10.78;91.86
68941;BME280;55982;51.476;7.552;2023-04-19T07:35:55;100757.06;;;11.13;86.53
68941;BME280;55982;51.476;7.552;2023-04-19T07:38:21;100745.31;;;11.32;82.32
68941;BME280;55982;51.476;7.552;2023-04-19T07:40:47;100765.16;;;11.83;81.54
68941;BME280;55982;51.476;7.552;2023-04-19T07:43:12;100751.38;;;10.92;81.75
68941;BME280;55982;51.476;7.552;2023-04-19T07:45:38;100752.91;;;11.04;79.73
68941;BME280;55982;51.476;7.552;2023-04-19T07:48:04;100756.22;;;10.68;83.27
68941;BME280;55982;51.476;7.552;2023-04-19T07:50:30;100765.13;;;11.45;83.38
68941;BME280;55982;51.476;7.552;2023-04-19T07:52:55;100759.19;;;11.37;80.68
68941;BME280;55982;51.476;7.552;2023-04-19T07:55:21;100771.66;;;11.67;78.53
68941;BME280;55982;51.476;7.552;2023-04-19T07:57:48;100753.38;;;10.78;79.68
68941;BME280;55982;51.476;7.552;2023-04-19T08:00:14;100755.88;;;11.29;80.75
68941;BME280;55982;51.476;7.552;2023-04-19T08:02:44;100756.66;;;11.72;77.40
68941;BME280;55982;51.476;7.552;2023-04-19T08:05:13;100763.34;;;11.05;79.60
68941;BME280;55982;51.476;7.552;2023-04-19T08:07:41;100757.09;;;11.51;84.08
68941;BME280;55982;51.476;7.552;2023-04-19T08:10:08;100758.72;;;10.72;80.84
68941;BME280;55982;51.476;7.552;2023-04-19T08:12:34;100762.88;;;11.69;82.89
68941;BME280;55982;51.476;7.552;2023-04-19T08:14:59;100762.41;;;10.62;81.36
68941;BME280;55982;51.476;7.552;2023-04-19T08:17:26;100759.63;;;11.16;82.74
68941;BME280;55982;51.476;7.552;2023-04-19T08:19:52;100758.44;;;11.30;81.69
68941;BME280;55982;51.476;7.552;2023-04-19T08:22:19;100755.16;;;11.21;81.38
68941;BME280;55982;51.476;7.552;2023-04-19T08:24:49;100759.59;;;11.57;80.87
68941;BME280;55982;51.476;7.552;2023-04-19T08:27:20;100756.50;;;10.98;78.59
68941;BME280;55982;51.476;7.552;2023-04-19T08:29:47;100759.56;;;11.19;84.13
68941;BME280;55982;51.476;7.552;2023-04-19T08:32:12;100762.69;;;10.47;82.89
68941;BME280;55982;51.476;7.552;2023-04-19T08:34:39;100761.50;;;11.90;82.08
68941;BME280;55982;51.476;7.552;2023-04-19T08:37:05;100757.09;;;11.51;76.92
68941;BME280;55982;51.476;7.552;2023-04-19T08:39:32;100732.81;;;12.19;74.35
68941;BME280;55982;51.476;7.552;2023-04-19T08:42:11;100762.78;;;12.44;76.57
68941;BME280;55982;51.476;7.552;2023-04-19T08:44:38;100758.34;;;12.11;73.33
68941;BME280;55982;51.476;7.552;2023-04-19T08:47:04;100754.34;;;11.57;72.38
68941;BME280;55982;51.476;7.552;2023-04-19T08:49:34;100749.19;;;11.54;74.94
68941;BME280;55982;51.476;7.552;2023-04-19T08:52:01;100758.22;;;10.99;74.66
68941;BME280;55982;51.476;7.552;2023-04-19T08:54:28;100754.53;;;11.10;72.74
68941;BME280;55982;51.476;7.552;2023-04-19T08:56:57;100743.84;;;12.65;69.92
68941;BME280;55982;51.476;7.552;2023-04-19T08:59:23;100758.97;;;11.87;67.05
68941;BME280;55982;51.476;7.552;2023-04-19T09:01:49;100752.06;;;12.18;69.18
68941;BME280;55982;51.476;7.552;2023-04-19T09:04:16;100751.94;;;11.48;67.97
68941;BME280;55982;51.476;7.552;2023-04-19T09:06:42;100748.63;;;11.40;69.59
68941;BME280;55982;51.476;7.552;2023-04-19T09:11:38;100747.19;;;12.70;68.70
68941;BME280;55982;51.476;7.552;2023-04-19T09:14:11;100743.53;;;12.10;64.17
68941;BME280;55982;51.476;7.552;2023-04-19T09:16:37;100742.91;;;12.01;62.75
68941;BME280;55982;51.476;7.552;2023-04-19T09:19:03;100743.38;;;12.82;65.93
68941;BME280;55982;51.476;7.552;2023-04-19T09:21:30;100729.22;;;12.23;65.69
68941;BME280;55982;51.476;7.552;2023-04-19T09:23:56;100754.91;;;12.76;62.00
68941;BME280;55982;51.476;7.552;2023-04-19T09:26:22;100745.03;;;11.83;60.77
68941;BME280;55982;51.476;7.552;2023-04-19T09:28:59;100754.22;;;12.01;60.59
68941;BME280;55982;51.476;7.552;2023-04-19T09:31:29;100739.38;;;12.35;62.66
68941;BME280;55982;51.476;7.552;2023-04-19T09:33:57;100735.66;;;13.37;64.19
68941;BME280;55982;51.476;7.552;2023-04-19T09:36:31;100733.00;;;13.39;61.98
68941;BME280;55982;51.476;7.552;2023-04-19T09:39:00;100735.22;;;13.23;63.42
68941;BME280;55982;51.476;7.552;2023-04-19T09:41:26;100728.88;;;13.00;59.67
68941;BME280;55982;51.476;7.552;2023-04-19T09:43:51;100731.63;;;13.26;64.86
68941;BME280;55982;51.476;7.552;2023-04-19T09:49:19;100710.44;;;13.59;56.98
68941;BME280;55982;51.476;7.552;2023-04-19T09:51:51;100711.34;;;13.86;60.15
68941;BME280;55982;51.476;7.552;2023-04-19T09:54:20;100709.00;;;13.77;60.45
68941;BME280;55982;51.476;7.552;2023-04-19T09:56:47;100703.63;;;13.80;59.22
68941;BME280;55982;51.476;7.552;2023-04-19T09:59:12;100693.28;;;14.28;57.77
68941;BME280;55982;51.476;7.552;2023-04-19T10:01:41;100701.13;;;14.03;55.44
68941;BME280;55982;51.476;7.552;2023-04-19T10:04:09;100689.16;;;14.70;55.53
68941;BME280;55982;51.476;7.552;2023-04-19T10:06:36;100698.78;;;14.20;54.74
68941;BME280;55982;51.476;7.552;2023-04-19T10:09:03;100707.88;;;13.58;58.03
68941;BME280;55982;51.476;7.552;2023-04-19T10:11:34;100681.66;;;13.55;53.68
68941;BME280;55982;51.476;7.552;2023-04-19T10:14:04;100691.84;;;13.38;53.31
68941;BME280;55982;51.476;7.552;2023-04-19T10:16:29;100702.00;;;12.59;54.59
68941;BME280;55982;51.476;7.552;2023-04-19T10:18:57;100699.06;;;13.01;55.40
68941;BME280;55982;51.476;7.552;2023-04-19T10:21:23;100692.94;;;13.86;55.07
68941;BME280;55982;51.476;7.552;2023-04-19T10:23:51;100703.41;;;13.02;52.40
68941;BME280;55982;51.476;7.552;2023-04-19T10:26:17;100688.31;;;12.79;54.94
68941;BME280;55982;51.476;7.552;2023-04-19T10:28:42;100686.72;;;13.33;52.25
68941;BME280;55982;51.476;7.552;2023-04-19T10:31:10;100684.81;;;14.18;54.15
68941;BME280;55982;51.476;7.552;2023-04-19T10:33:37;100660.22;;;14.19;51.56
68941;BME280;55982;51.476;7.552;2023-04-19T10:36:03;100683.47;;;13.53;53.02
68941;BME280;55982;51.476;7.552;2023-04-19T10:38:46;100681.44;;;14.65;53.57
68941;BME280;55982;51.476;7.552;2023-04-19T10:41:17;100665.69;;;14.13;51.55
68941;BME280;55982;51.476;7.552;2023-04-19T10:43:43;100669.50;;;13.78;55.18
68941;BME280;55982;51.476;7.552;2023-04-19T10:46:13;100674.72;;;13.25;53.78
68941;BME280;55982;51.476;7.552;2023-04-19T10:51:17;100662.25;;;14.11;52.80
68941;BME280;55982;51.476;7.552;2023-04-19T10:56:14;100667.19;;;15.17;50.78
68941;BME280;55982;51.476;7.552;2023-04-19T11:01:53;100651.75;;;15.07;51.43
68941;BME280;55982;51.476;7.552;2023-04-19T11:04:56;100644.50;;;15.13;50.09
68941;BME280;55982;51.476;7.552;2023-04-19T11:07:06;100640.78;;;14.73;48.26
68941;BME280;55982;51.476;7.552;2023-04-19T11:09:36;100646.47;;;14.11;48.29
68941;BME280;55982;51.476;7.552;2023-04-19T11:14:31;100625.97;;;14.45;46.56
68941;BME280;55982;51.476;7.552;2023-04-19T11:16:57;100623.84;;;15.24;45.00
68941;BME280;55982;51.476;7.552;2023-04-19T11:19:23;100621.78;;;16.16;48.74
68941;BME280;55982;51.476;7.552;2023-04-19T11:21:48;100613.00;;;15.95;42.88
68941;BME280;55982;51.476;7.552;2023-04-19T11:24:15;100617.59;;;15.70;44.35
68941;BME280;55982;51.476;7.552;2023-04-19T11:26:43;100619.28;;;15.28;47.59
68941;BME280;55982;51.476;7.552;2023-04-19T11:29:09;100628.56;;;14.93;46.23
68941;BME280;55982;51.476;7.552;2023-04-19T11:31:35;100617.88;;;14.75;47.58
68941;BME280;55982;51.476;7.552;2023-04-19T11:34:04;100617.09;;;15.39;47.67
68941;BME280;55982;51.476;7.552;2023-04-19T11:36:32;100601.06;;;15.45;47.98
68941;BME280;55982;51.476;7.552;2023-04-19T11:39:01;100601.28;;;15.61;49.62
68941;BME280;55982;51.476;7.552;2023-04-19T11:41:29;100586.16;;;16.44;46.58
68941;BME280;55982;51.476;7.552;2023-04-19T11:43:54;100581.34;;;15.95;49.75
68941;BME280;55982;51.476;7.552;2023-04-19T11:46:19;100588.13;;;16.21;49.08
68941;BME280;55982;51.476;7.552;2023-04-19T11:48:52;100593.22;;;16.05;46.58
68941;BME280;55982;51.476;7.552;2023-04-19T11:51:17;100581.41;;;15.09;48.35
68941;BME280;55982;51.476;7.552;2023-04-19T11:53:43;100591.94;;;15.09;45.48
68941;BME280;55982;51.476;7.552;2023-04-19T11:56:08;100578.47;;;15.16;43.69
68941;BME280;55982;51.476;7.552;2023-04-19T11:58:44;100568.94;;;14.21;44.77
68941;BME280;55982;51.476;7.552;2023-04-19T12:01:18;100576.09;;;14.16;43.17
68941;BME280;55982;51.476;7.552;2023-04-19T12:03:52;100572.72;;;15.50;44.24
68941;BME280;55982;51.476;7.552;2023-04-19T12:06:22;100574.66;;;15.67;44.29
68941;BME280;55982;51.476;7.552;2023-04-19T12:08:49;100562.13;;;14.85;42.83
68941;BME280;55982;51.476;7.552;2023-04-19T12:11:20;100570.72;;;16.17;45.62
68941;BME280;55982;51.476;7.552;2023-04-19T12:13:46;100557.03;;;15.04;46.05
68941;BME280;55982;51.476;7.552;2023-04-19T12:16:12;100562.31;;;15.87;46.66
68941;BME280;55982;51.476;7.552;2023-04-19T12:18:46;100545.81;;;15.62;47.04
68941;BME280;55982;51.476;7.552;2023-04-19T12:21:26;100554.31;;;15.48;44.66
68941;BME280;55982;51.476;7.552;2023-04-19T12:23:56;100550.53;;;14.91;44.21
68941;BME280;55982;51.476;7.552;2023-04-19T12:26:22;100539.63;;;15.21;43.71
68941;BME280;55982;51.476;7.552;2023-04-19T12:28:48;100541.09;;;15.90;44.49
68941;BME280;55982;51.476;7.552;2023-04-19T12:31:13;100543.25;;;16.97;44.69
68941;BME280;55982;51.476;7.552;2023-04-19T12:33:39;100547.47;;;16.05;45.68
68941;BME280;55982;51.476;7.552;2023-04-19T12:36:04;100544.69;;;15.68;43.90
68941;BME280;55982;51.476;7.552;2023-04-19T12:38:30;100532.47;;;16.25;43.28
68941;BME280;55982;51.476;7.552;2023-04-19T12:40:55;100536.78;;;14.83;42.40
68941;BME280;55982;51.476;7.552;2023-04-19T12:43:21;100500.91;;;15.22;42.08
68941;BME280;55982;51.476;7.552;2023-04-19T12:45:46;100542.13;;;15.66;41.86
68941;BME280;55982;51.476;7.552;2023-04-19T12:48:11;100549.47;;;14.72;43.38
68941;BME280;55982;51.476;7.552;2023-04-19T12:50:37;100528.03;;;15.04;41.72
68941;BME280;55982;51.476;7.552;2023-04-19T12:53:02;100523.53;;;15.49;42.22
68941;BME280;55982;51.476;7.552;2023-04-19T12:55:28;100531.53;;;15.88;40.06
68941;BME280;55982;51.476;7.552;2023-04-19T12:57:53;100523.38;;;16.70;40.15
68941;BME280;55982;51.476;7.552;2023-04-19T13:00:19;100533.56;;;16.01;39.41
68941;BME280;55982;51.476;7.552;2023-04-19T13:02:44;100520.66;;;15.75;39.96